Time;durP1;ratioP1;P1;durP2;ratioP2;P2;SDS_P1;SDS_P2;PMS_P1;PMS_P2;Temp;Humidity;BMP_temperature;BMP_pressure;BME280_temperature;BME280_humidity;BME280_pressure;Samples;Min_cycle;Max_cycle;Signal;HPM_P1;HPM_P2
2022/07/18 00:01:45;;;;;;;5.38;2.20;;;19.30;99.90;;;;;;5053223;28;20037;-59
2022/07/18 00:04:11;;;;;;;5.40;2.13;;;19.20;99.90;;;;;;5055341;28;20017;-59
2022/07/18 00:06:37;;;;;;;3.88;2.20;;;19.20;99.90;;;;;;5055028;28;20098;-59
2022/07/18 00:09:03;;;;;;;4.28;2.28;;;19.20;99.90;;;;;;5055311;28;20025;-59
2022/07/18 00:11:30;;;;;;;3.75;2.10;;;19.20;99.90;;;;;;5055283;28;20108;-59
2022/07/18 00:13:56;;;;;;;3.55;1.90;;;19.10;99.90;;;;;;5054797;28;20029;-59
2022/07/18 00:16:25;;;;;;;4.25;2.10;;;19.10;99.90;;;;;;5054789;28;20501;-59
2022/07/18 00:18:51;;;;;;;3.30;2.03;;;19.10;99.90;;;;;;5054691;28;20028;-60
2022/07/18 00:21:17;;;;;;;6.40;2.17;;;19.00;99.90;;;;;;5054479;28;20025;-59
2022/07/18 00:23:42;;;;;;;5.57;2.10;;;19.00;99.90;;;;;;5054502;28;20044;-59
2022/07/18 00:26:08;;;;;;;5.60;2.03;;;19.00;99.90;;;;;;5054741;28;20079;-59
2022/07/18 00:28:34;;;;;;;6.22;2.25;;;18.90;99.90;;;;;;5054968;28;20389;-59
2022/07/18 00:30:59;;;;;;;10.05;2.35;;;18.90;99.90;;;;;;5054435;28;20283;-59
2022/07/18 00:33:25;;;;;;;5.85;2.17;;;18.90;99.90;;;;;;5054396;28;20033;-58
2022/07/18 00:35:51;;;;;;;5.30;2.10;;;18.90;99.90;;;;;;5055016;28;20037;-59
2022/07/18 00:38:16;;;;;;;6.90;2.20;;;18.80;99.90;;;;;;5053398;28;20025;-58
2022/07/18 00:40:42;;;;;;;6.10;2.35;;;18.80;99.90;;;;;;5054460;28;20102;-58
2022/07/18 00:43:08;;;;;;;5.85;2.00;;;18.90;99.90;;;;;;5054279;28;20040;-58
2022/07/18 00:45:33;;;;;;;3.03;2.10;;;18.80;99.90;;;;;;5054118;28;20021;-58
2022/07/18 00:48:07;;;;;;;7.43;2.25;;;18.80;99.90;;;;;;5054467;28;20498;-58
2022/07/18 00:50:33;;;;;;;5.30;2.35;;;18.60;99.90;;;;;;5053031;28;20128;-59
2022/07/18 00:52:59;;;;;;;6.63;2.40;;;18.50;99.90;;;;;;5053844;28;20676;-58
2022/07/18 00:55:24;;;;;;;5.78;2.20;;;18.50;99.90;;;;;;5054156;28;20371;-58
2022/07/18 00:57:51;;;;;;;8.73;2.25;;;18.50;99.90;;;;;;5054243;28;20607;-58
2022/07/18 01:03:01;;;;;;;4.65;2.33;;;18.30;99.90;;;;;;5053769;28;20086;-59
2022/07/18 01:05:26;;;;;;;4.47;2.22;;;18.30;99.90;;;;;;5054246;28;20112;-58
2022/07/18 01:07:52;;;;;;;7.22;2.50;;;18.20;99.90;;;;;;5054441;28;20033;-58
2022/07/18 01:10:18;;;;;;;5.75;2.13;;;18.20;99.90;;;;;;5053601;28;20017;-58
2022/07/18 01:12:45;;;;;;;6.28;2.53;;;18.30;99.90;;;;;;5053609;28;20513;-59
2022/07/18 01:15:11;;;;;;;5.20;2.60;;;18.30;99.90;;;;;;5052190;28;20032;-58
2022/07/18 01:17:37;;;;;;;6.57;2.42;;;18.30;99.90;;;;;;5054010;28;20402;-58
2022/07/18 01:20:05;;;;;;;9.20;2.90;;;18.50;99.90;;;;;;5052413;28;20029;-58
2022/07/18 01:22:31;;;;;;;4.97;2.60;;;18.50;99.90;;;;;;5053512;28;20119;-59
2022/07/18 01:24:57;;;;;;;5.40;2.40;;;18.40;99.90;;;;;;5052046;28;20438;-58
2022/07/18 01:27:23;;;;;;;4.68;2.30;;;18.30;99.90;;;;;;5053381;28;20489;-58
2022/07/18 01:29:50;;;;;;;4.25;2.42;;;18.30;99.90;;;;;;5053250;28;20025;-58
2022/07/18 01:32:17;;;;;;;6.28;2.60;;;18.20;99.90;;;;;;5053350;28;20532;-58
2022/07/18 01:34:45;;;;;;;4.13;2.35;;;18.20;99.90;;;;;;5053200;28;20025;-59
2022/07/18 01:37:11;;;;;;;6.28;2.70;;;18.30;99.90;;;;;;5053159;28;20068;-59
2022/07/18 01:39:37;;;;;;;5.85;2.55;;;18.20;99.90;;;;;;5053495;28;20060;-59
2022/07/18 01:42:06;;;;;;;7.22;2.50;;;18.20;99.90;;;;;;5053077;28;20037;-58
2022/07/18 01:44:32;;;;;;;5.85;2.63;;;18.20;99.90;;;;;;5053485;28;20052;-59
2022/07/18 01:46:58;;;;;;;6.45;2.50;;;18.20;99.90;;;;;;5053019;28;20397;-59
2022/07/18 01:49:25;;;;;;;6.55;2.70;;;18.20;99.90;;;;;;5053307;28;20478;-59
2022/07/18 01:51:53;;;;;;;4.35;2.40;;;18.10;99.90;;;;;;5053059;28;20413;-58
2022/07/18 01:54:20;;;;;;;5.75;2.58;;;18.00;99.90;;;;;;5052885;28;20051;-58
2022/07/18 01:56:46;;;;;;;5.78;2.22;;;18.00;99.90;;;;;;5052888;28;20036;-58
2022/07/18 01:59:12;;;;;;;7.72;2.25;;;18.00;99.90;;;;;;5053066;28;20025;-58
2022/07/18 02:01:37;;;;;;;6.55;2.92;;;17.90;99.90;;;;;;5051550;28;20033;-59
2022/07/18 02:04:03;;;;;;;5.85;2.80;;;17.90;99.90;;;;;;5052699;28;20029;-58
2022/07/18 02:06:29;;;;;;;4.05;2.60;;;17.90;99.90;;;;;;5052781;28;20049;-59
2022/07/18 02:08:55;;;;;;;5.78;2.53;;;18.00;99.90;;;;;;5052902;28;20524;-59
2022/07/18 02:11:21;;;;;;;5.07;2.70;;;17.90;99.90;;;;;;5052567;28;20035;-58
2022/07/18 02:13:46;;;;;;;6.45;2.72;;;17.80;99.90;;;;;;5051671;28;20478;-58
2022/07/18 02:16:12;;;;;;;9.13;2.83;;;17.80;99.90;;;;;;5052559;28;20064;-59
2022/07/18 02:18:37;;;;;;;6.32;2.95;;;17.80;99.90;;;;;;5052662;28;20079;-58
2022/07/18 02:21:03;;;;;;;6.47;2.35;;;17.80;99.90;;;;;;5052489;28;20082;-58
2022/07/18 02:23:29;;;;;;;7.68;2.65;;;17.70;99.90;;;;;;5051523;28;20040;-58
2022/07/18 02:25:55;;;;;;;6.20;2.30;;;17.60;99.90;;;;;;5052429;28;20428;-58
2022/07/18 02:28:21;;;;;;;4.40;2.25;;;17.60;99.90;;;;;;5052331;28;20018;-58
2022/07/18 02:30:50;;;;;;;4.32;2.40;;;17.70;99.90;;;;;;5052334;28;20092;-58
2022/07/18 02:33:16;;;;;;;5.80;2.42;;;17.60;99.90;;;;;;5052064;28;20025;-58
2022/07/18 02:35:42;;;;;;;8.65;2.10;;;17.60;99.90;;;;;;5052214;28;20437;-58
2022/07/18 02:38:09;;;;;;;9.68;3.00;;;17.50;99.90;;;;;;5052316;28;20025;-58
2022/07/18 02:40:34;;;;;;;6.90;2.85;;;17.50;99.90;;;;;;5052510;28;20037;-60
2022/07/18 02:43:00;;;;;;;9.85;3.15;;;17.40;99.90;;;;;;5051848;28;20033;-58
2022/07/18 02:45:26;;;;;;;8.25;2.88;;;17.50;99.90;;;;;;5050658;28;20648;-58
2022/07/18 02:47:52;;;;;;;7.22;2.33;;;17.30;99.90;;;;;;5051890;28;20025;-58
2022/07/18 02:50:19;;;;;;;7.90;2.58;;;17.20;99.90;;;;;;5051995;28;20025;-57
2022/07/18 02:52:45;;;;;;;6.88;2.80;;;17.20;99.90;;;;;;5051608;28;20088;-57
2022/07/18 02:55:12;;;;;;;4.95;2.47;;;17.10;99.90;;;;;;5051761;28;20498;-58
2022/07/18 02:57:38;;;;;;;6.25;2.80;;;16.90;99.90;;;;;;5051854;28;20061;-58
2022/07/18 03:00:07;;;;;;;5.80;3.15;;;16.90;99.90;;;;;;5051712;28;20025;-58
2022/07/18 03:02:32;;;;;;;7.00;2.30;;;16.90;99.90;;;;;;5051765;28;20029;-58
2022/07/18 03:04:58;;;;;;;8.18;2.70;;;17.00;99.90;;;;;;5051526;28;20021;-58
2022/07/18 03:07:24;;;;;;;5.47;2.58;;;17.00;99.90;;;;;;5050371;28;20104;-58
2022/07/18 03:09:50;;;;;;;7.35;2.85;;;16.90;99.90;;;;;;5051633;28;20392;-58
2022/07/18 03:12:17;;;;;;;5.47;2.85;;;16.80;99.90;;;;;;5050325;28;20370;-59
2022/07/18 03:14:43;;;;;;;4.32;2.63;;;16.80;99.90;;;;;;5049998;28;20504;-57
2022/07/18 03:17:09;;;;;;;3.47;2.30;;;16.80;99.90;;;;;;5051339;28;20040;-58
2022/07/18 03:19:35;;;;;;;7.53;2.53;;;16.80;99.90;;;;;;5051580;28;20036;-58
2022/07/18 03:22:01;;;;;;;4.72;2.58;;;16.90;99.90;;;;;;5051053;28;20125;-57
2022/07/18 03:24:27;;;;;;;6.15;2.80;;;16.80;99.90;;;;;;5051272;28;20071;-58
2022/07/18 03:26:52;;;;;;;9.10;2.88;;;16.80;99.90;;;;;;5051189;28;20037;-58
2022/07/18 03:29:18;;;;;;;6.43;2.70;;;17.00;99.90;;;;;;5051316;28;20029;-58
2022/07/18 03:31:44;;;;;;;6.15;3.13;;;16.90;99.90;;;;;;5051340;28;20036;-57
2022/07/18 03:34:09;;;;;;;7.35;2.65;;;16.80;99.90;;;;;;5051277;28;20037;-58
2022/07/18 03:36:35;;;;;;;11.70;3.00;;;16.80;99.90;;;;;;5051326;28;20037;-59
2022/07/18 03:39:01;;;;;;;6.60;2.92;;;16.70;99.90;;;;;;5051473;28;20121;-59
2022/07/18 03:41:27;;;;;;;5.75;2.85;;;16.70;99.90;;;;;;5051319;28;20482;-59
2022/07/18 03:43:52;;;;;;;9.52;3.03;;;16.80;99.90;;;;;;5051597;28;20033;-58
2022/07/18 03:46:18;;;;;;;4.57;2.63;;;16.90;99.90;;;;;;5051140;28;20033;-59
2022/07/18 03:48:43;;;;;;;4.63;2.50;;;16.80;99.90;;;;;;5051820;28;20105;-58
2022/07/18 03:51:09;;;;;;;5.47;2.42;;;16.70;99.90;;;;;;5051741;28;20029;-57
2022/07/18 03:53:35;;;;;;;9.43;2.88;;;16.60;99.90;;;;;;5051031;28;20053;-57
2022/07/18 03:56:00;;;;;;;5.82;2.80;;;16.40;99.90;;;;;;5051530;28;20027;-58
2022/07/18 03:58:26;;;;;;;8.50;2.42;;;16.30;99.90;;;;;;5051361;28;20470;-59
2022/07/18 04:00:52;;;;;;;11.10;2.97;;;16.10;99.90;;;;;;5051100;28;20079;-58
2022/07/18 04:03:18;;;;;;;6.20;2.88;;;16.20;99.90;;;;;;5051321;28;20071;-59
2022/07/18 04:05:44;;;;;;;5.95;2.85;;;16.10;99.90;;;;;;5051558;28;20029;-58
2022/07/18 04:08:09;;;;;;;5.93;2.80;;;16.10;99.90;;;;;;5051401;28;20028;-58
2022/07/18 04:10:35;;;;;;;5.75;2.97;;;16.10;99.90;;;;;;5051000;28;20116;-57
2022/07/18 04:13:00;;;;;;;9.75;3.35;;;16.00;99.90;;;;;;5049472;28;20512;-58
2022/07/18 04:15:27;;;;;;;8.07;2.92;;;16.00;99.90;;;;;;5051139;28;20354;-57
2022/07/18 04:17:53;;;;;;;6.03;2.88;;;15.90;99.90;;;;;;5051670;28;20367;-57
2022/07/18 04:20:20;;;;;;;6.78;2.63;;;15.90;99.90;;;;;;5049480;28;20154;-57
2022/07/18 04:22:58;;;;;;;6.85;3.08;;;15.90;99.90;;;;;;5050922;28;20033;-57
2022/07/18 04:25:26;;;;;;;10.43;3.22;;;15.80;99.90;;;;;;5051006;28;20017;-57
2022/07/18 04:27:52;;;;;;;13.27;3.53;;;15.80;99.90;;;;;;5051070;28;20485;-58
2022/07/18 04:30:22;;;;;;;6.57;3.03;;;15.80;99.90;;;;;;5050853;28;20028;-58
2022/07/18 04:32:47;;;;;;;5.75;3.22;;;15.90;99.90;;;;;;5050890;28;20688;-57
2022/07/18 04:35:13;;;;;;;4.13;3.22;;;16.10;99.90;;;;;;5050472;28;20124;-57
2022/07/18 04:37:40;;;;;;;7.30;3.08;;;16.20;99.90;;;;;;5050616;28;20029;-58
2022/07/18 04:40:07;;;;;;;4.07;3.55;;;16.30;99.90;;;;;;5050607;28;20505;-56
2022/07/18 04:42:33;;;;;;;9.90;3.33;;;16.30;99.90;;;;;;5050559;28;20501;-57
2022/07/18 04:44:59;;;;;;;6.00;3.65;;;16.40;99.90;;;;;;5050762;28;20053;-57
2022/07/18 04:47:26;;;;;;;10.20;3.55;;;16.50;99.90;;;;;;5052307;28;20763;-58
2022/07/18 04:49:52;;;;;;;7.35;3.08;;;16.60;99.90;;;;;;5053988;28;20386;-57
2022/07/18 04:52:18;;;;;;;7.40;3.50;;;16.60;99.90;;;;;;5053949;28;20025;-56
2022/07/18 04:54:44;;;;;;;7.95;3.65;;;16.60;99.90;;;;;;5052609;28;20047;-58
2022/07/18 04:57:14;;;;;;;5.43;3.15;;;16.70;99.90;;;;;;5054214;28;20028;-57
2022/07/18 04:59:41;;;;;;;5.43;2.95;;;17.00;99.90;;;;;;5054143;28;20025;-57
2022/07/18 05:02:11;;;;;;;8.50;3.55;;;17.30;99.90;;;;;;5053874;28;20040;-57
2022/07/18 05:04:39;;;;;;;6.72;3.22;;;17.50;99.90;;;;;;5053750;28;20820;-57
2022/07/18 05:07:06;;;;;;;5.15;2.78;;;17.60;99.90;;;;;;5053650;28;20028;-58
2022/07/18 05:09:32;;;;;;;9.50;3.28;;;17.80;99.90;;;;;;5052661;28;20036;-57
2022/07/18 05:11:57;;;;;;;7.15;3.17;;;17.90;99.90;;;;;;5053722;28;20349;-59
2022/07/18 05:14:23;;;;;;;8.25;3.33;;;18.00;99.90;;;;;;5054176;28;20368;-59
2022/07/18 05:16:49;;;;;;;8.05;3.10;;;18.10;99.90;;;;;;5053920;28;20377;-58
2022/07/18 05:19:15;;;;;;;5.65;2.85;;;18.20;99.90;;;;;;5053755;28;20039;-58
2022/07/18 05:21:42;;;;;;;4.78;2.90;;;18.30;99.90;;;;;;5053564;28;20505;-58
2022/07/18 05:24:08;;;;;;;6.95;2.65;;;18.50;99.90;;;;;;5053497;28;20446;-63
2022/07/18 05:26:34;;;;;;;8.85;3.05;;;18.50;99.90;;;;;;5053492;28;20079;-58
2022/07/18 05:28:59;;;;;;;10.52;3.58;;;18.50;99.90;;;;;;5053848;28;20093;-58
2022/07/18 05:31:25;;;;;;;5.72;3.10;;;18.50;99.90;;;;;;5053433;28;20066;-58
2022/07/18 05:33:51;;;;;;;8.00;3.00;;;18.50;99.90;;;;;;5053287;28;20021;-58
2022/07/18 05:36:17;;;;;;;4.03;2.72;;;18.60;99.90;;;;;;5053502;28;20039;-58
2022/07/18 05:38:42;;;;;;;5.55;2.95;;;18.60;99.90;;;;;;5053389;28;20100;-58
2022/07/18 05:41:08;;;;;;;7.10;2.85;;;18.60;99.90;;;;;;5053608;28;20325;-57
2022/07/18 05:43:34;;;;;;;8.80;3.00;;;18.60;99.90;;;;;;5053506;28;20021;-59
2022/07/18 05:45:59;;;;;;;6.65;3.17;;;18.60;99.90;;;;;;5053693;28;20032;-58
2022/07/18 05:48:25;;;;;;;6.00;2.75;;;18.80;99.90;;;;;;5053715;28;20025;-58
2022/07/18 05:50:50;;;;;;;10.05;3.65;;;18.90;99.90;;;;;;5053647;28;20036;-58
2022/07/18 05:53:16;;;;;;;8.55;3.10;;;19.10;99.90;;;;;;5052971;28;20048;-58
2022/07/18 05:55:42;;;;;;;5.90;3.10;;;19.20;99.90;;;;;;5053194;28;20075;-58
2022/07/18 05:58:08;;;;;;;6.97;3.38;;;19.30;99.90;;;;;;5052042;28;20112;-59
2022/07/18 06:00:33;;;;;;;5.75;3.42;;;19.50;99.90;;;;;;5053194;28;20036;-59
2022/07/18 06:03:00;;;;;;;5.72;2.90;;;19.60;99.90;;;;;;5052791;28;20047;-59
2022/07/18 06:05:26;;;;;;;7.93;3.50;;;19.60;99.90;;;;;;5051469;28;20032;-58
2022/07/18 06:07:55;;;;;;;5.25;2.95;;;19.70;99.90;;;;;;5052965;28;20025;-58
2022/07/18 06:10:23;;;;;;;12.38;3.72;;;19.80;99.90;;;;;;5052581;28;20017;-58
2022/07/18 06:12:50;;;;;;;6.07;3.35;;;19.80;99.90;;;;;;5051799;28;20048;-59
2022/07/18 06:15:15;;;;;;;6.28;3.28;;;19.80;99.90;;;;;;5052928;28;20509;-58
2022/07/18 06:17:41;;;;;;;7.80;3.13;;;19.90;99.90;;;;;;5053073;28;20052;-58
2022/07/18 06:20:07;;;;;;;9.50;3.78;;;19.90;99.90;;;;;;5052622;28;20033;-58
2022/07/18 06:22:34;;;;;;;7.63;3.22;;;20.00;99.90;;;;;;5051114;28;20080;-58
2022/07/18 06:25:01;;;;;;;8.60;3.50;;;20.10;99.90;;;;;;5051055;28;20488;-58
2022/07/18 06:27:26;;;;;;;14.82;4.15;;;20.10;99.90;;;;;;5050977;28;20025;-58
2022/07/18 06:29:52;;;;;;;9.70;3.40;;;20.20;99.90;;;;;;5052390;28;20090;-63
2022/07/18 06:32:18;;;;;;;6.18;3.30;;;20.40;99.90;;;;;;5052337;28;20029;-60
2022/07/18 06:34:43;;;;;;;5.18;3.10;;;20.50;99.90;;;;;;5052194;28;20100;-58
2022/07/18 06:37:09;;;;;;;7.93;3.35;;;20.60;99.90;;;;;;5052334;28;20054;-58
2022/07/18 06:39:34;;;;;;;6.75;3.20;;;20.60;99.90;;;;;;5050593;28;20029;-58
2022/07/18 06:42:00;;;;;;;6.05;2.97;;;20.80;99.90;;;;;;5052036;28;20057;-59
2022/07/18 06:44:26;;;;;;;5.53;3.00;;;21.00;99.90;;;;;;5051756;28;20092;-59
2022/07/18 06:46:54;;;;;;;7.30;2.92;;;21.30;99.90;;;;;;5051816;28;20029;-58
2022/07/18 06:49:20;;;;;;;5.57;3.33;;;21.50;99.90;;;;;;5052030;28;20474;-58
2022/07/18 06:51:46;;;;;;;7.18;3.15;;;21.80;99.90;;;;;;5051616;28;20044;-58
2022/07/18 06:54:11;;;;;;;5.25;2.72;;;22.20;99.90;;;;;;5051240;28;20041;-58
2022/07/18 06:56:37;;;;;;;7.55;2.80;;;23.10;99.90;;;;;;5051624;28;20033;-59
2022/07/18 06:59:03;;;;;;;6.97;3.05;;;23.70;99.70;;;;;;5051769;28;20056;-60
2022/07/18 07:01:28;;;;;;;7.25;2.92;;;24.10;98.70;;;;;;5051577;28;20040;-59
2022/07/18 07:03:54;;;;;;;8.07;2.83;;;24.00;98.10;;;;;;5051304;28;20494;-59
2022/07/18 07:06:20;;;;;;;5.78;2.25;;;23.70;98.60;;;;;;5049842;28;20032;-59
2022/07/18 07:08:46;;;;;;;6.72;2.50;;;23.40;99.00;;;;;;5051372;28;20021;-60
2022/07/18 07:11:11;;;;;;;6.88;2.63;;;23.20;99.60;;;;;;5051150;28;20057;-59
2022/07/18 07:13:37;;;;;;;6.93;3.20;;;23.20;99.90;;;;;;5051266;28;20035;-58
2022/07/18 07:16:03;;;;;;;5.63;3.30;;;23.10;99.90;;;;;;5051283;28;20027;-58
2022/07/18 07:18:29;;;;;;;7.03;2.50;;;23.10;99.90;;;;;;5051401;28;20585;-59
2022/07/18 07:20:55;;;;;;;7.82;2.70;;;23.50;99.80;;;;;;5051258;28;20028;-59
2022/07/18 07:23:20;;;;;;;5.55;2.65;;;24.00;98.90;;;;;;5050797;28;20037;-59
2022/07/18 07:25:46;;;;;;;8.70;2.90;;;24.30;97.50;;;;;;5051420;28;20033;-60
2022/07/18 07:28:11;;;;;;;7.50;2.40;;;24.80;95.60;;;;;;5051267;28;20099;-60
2022/07/18 07:30:37;;;;;;;5.50;2.42;;;25.50;93.90;;;;;;5051137;28;20040;-60
2022/07/18 07:33:03;;;;;;;6.70;2.20;;;25.80;93.90;;;;;;5050941;28;20031;-60
2022/07/18 07:35:29;;;;;;;5.65;2.58;;;26.40;92.50;;;;;;5050078;28;20078;-60
2022/07/18 07:37:57;;;;;;;4.57;2.55;;;27.10;91.30;;;;;;5051383;28;20071;-60
2022/07/18 07:40:24;;;;;;;3.90;2.13;;;27.80;88.90;;;;;;5049626;28;20032;-60
2022/07/18 07:42:51;;;;;;;8.23;2.50;;;27.90;88.30;;;;;;5050792;28;20033;-60
2022/07/18 07:45:17;;;;;;;4.38;2.50;;;28.60;85.30;;;;;;5051179;28;20484;-60
2022/07/18 07:47:43;;;;;;;6.03;2.10;;;29.10;83.20;;;;;;5051316;28;20029;-60
2022/07/18 07:50:11;;;;;;;6.72;2.08;;;29.10;82.00;;;;;;5051049;28;20022;-60
2022/07/18 07:52:38;;;;;;;5.28;2.00;;;29.10;81.30;;;;;;5050699;28;20478;-60
2022/07/18 07:55:05;;;;;;;7.45;2.47;;;29.50;79.50;;;;;;5050750;28;20171;-60
2022/07/18 07:57:31;;;;;;;5.75;2.10;;;29.60;80.70;;;;;;5050870;28;20122;-60
2022/07/18 07:59:57;;;;;;;7.18;2.20;;;29.50;78.80;;;;;;5050816;28;20021;-61
2022/07/18 08:02:22;;;;;;;4.63;2.03;;;30.00;78.40;;;;;;5050582;28;20167;-61
2022/07/18 08:04:49;;;;;;;5.25;2.00;;;30.20;76.70;;;;;;5050837;28;20379;-60
2022/07/18 08:07:16;;;;;;;6.72;2.38;;;30.40;77.80;;;;;;5050662;28;20029;-60
2022/07/18 08:09:42;;;;;;;8.23;1.77;;;30.50;76.10;;;;;;5051404;28;20485;-61
2022/07/18 08:12:07;;;;;;;9.00;2.53;;;30.40;74.60;;;;;;5032636;28;20025;-60
2022/07/18 08:14:35;;;;;;;3.72;1.52;;;30.20;75.30;;;;;;5049076;28;20021;-61
2022/07/18 08:17:00;;;;;;;4.28;1.63;;;30.10;73.30;;;;;;5050906;28;20072;-58
2022/07/18 08:19:26;;;;;;;7.03;1.73;;;29.70;74.50;;;;;;5050546;28;20056;-60
2022/07/18 08:21:51;;;;;;;5.90;1.90;;;29.50;73.70;;;;;;5050469;28;20039;-61
2022/07/18 08:24:17;;;;;;;3.53;1.60;;;29.90;74.50;;;;;;5054501;28;20536;-61
2022/07/18 08:26:43;;;;;;;5.28;1.58;;;30.60;72.20;;;;;;5054263;28;20032;-62
2022/07/18 08:29:08;;;;;;;5.32;2.17;;;30.30;71.00;;;;;;5054936;28;20075;-61
2022/07/18 08:31:34;;;;;;;8.38;2.28;;;30.50;71.90;;;;;;5054410;28;20044;-61
2022/07/18 08:34:00;;;;;;;4.43;1.70;;;31.50;70.10;;;;;;5054065;28;20052;-61
2022/07/18 08:36:26;;;;;;;6.70;1.80;;;31.60;70.10;;;;;;5054526;28;20033;-61
2022/07/18 08:38:52;;;;;;;4.78;2.20;;;31.30;70.70;;;;;;5054880;28;20534;-58
2022/07/18 08:41:18;;;;;;;3.15;1.60;;;31.10;71.50;;;;;;5054133;28;20351;-58
2022/07/18 08:43:45;;;;;;;3.10;1.70;;;31.10;71.40;;;;;;5054407;28;20021;-59
2022/07/18 08:46:12;;;;;;;5.63;1.50;;;31.10;71.40;;;;;;5054346;28;20078;-58
2022/07/18 08:48:39;;;;;;;3.63;1.70;;;30.30;71.60;;;;;;5053942;28;20116;-60
2022/07/18 08:51:05;;;;;;;3.08;1.80;;;30.00;73.20;;;;;;5053726;28;20044;-60
2022/07/18 08:53:33;;;;;;;5.10;2.00;;;30.40;73.20;;;;;;5053725;28;20056;-61
2022/07/18 08:55:59;;;;;;;7.78;1.90;;;31.50;72.80;;;;;;5052848;28;20025;-60
2022/07/18 08:58:25;;;;;;;3.17;1.77;;;32.30;69.30;;;;;;5053921;28;20508;-60
2022/07/18 09:00:50;;;;;;;2.28;1.48;;;32.60;66.20;;;;;;5053539;28;20545;-60
2022/07/18 09:03:16;;;;;;;6.60;1.73;;;32.70;65.00;;;;;;5053773;28;20029;-60
2022/07/18 09:05:42;;;;;;;6.97;1.70;;;32.30;67.10;;;;;;5052448;28;20029;-61
2022/07/18 09:08:13;;;;;;;6.18;1.73;;;32.80;66.70;;;;;;5053791;28;20024;-60
2022/07/18 09:10:47;;;;;;;4.83;1.60;;;33.10;65.00;;;;;;5054523;28;20490;-60
2022/07/18 09:13:13;;;;;;;5.60;2.00;;;32.90;67.20;;;;;;5054265;28;20037;-60
2022/07/18 09:16:00;;;;;;;6.47;1.75;;;32.90;66.30;;;;;;5052381;28;20401;-60
2022/07/18 09:18:40;;;;;;;6.63;1.55;;;33.00;65.70;;;;;;5053714;28;20484;-61
2022/07/18 09:21:08;;;;;;;3.20;1.55;;;33.50;66.00;;;;;;5053805;28;20037;-61
2022/07/18 09:23:36;;;;;;;5.13;1.83;;;34.30;63.10;;;;;;5053340;28;20496;-60
2022/07/18 09:26:03;;;;;;;2.67;1.50;;;34.50;61.30;;;;;;5053937;28;20025;-60
2022/07/18 09:28:29;;;;;;;4.43;1.40;;;34.10;61.40;;;;;;5053822;28;20100;-60
2022/07/18 09:30:56;;;;;;;2.10;1.30;;;34.30;61.10;;;;;;5053057;28;20367;-60
2022/07/18 09:33:22;;;;;;;4.75;1.38;;;33.90;61.20;;;;;;5052973;28;20094;-58
2022/07/18 09:35:49;;;;;;;3.13;1.20;;;33.20;63.70;;;;;;5053616;28;20028;-59
2022/07/18 09:38:17;;;;;;;4.75;1.60;;;32.50;64.50;;;;;;5053858;28;20025;-60
2022/07/18 09:40:48;;;;;;;2.67;1.42;;;33.20;62.00;;;;;;5053812;28;20061;-61
2022/07/18 09:43:16;;;;;;;5.25;1.08;;;33.20;61.50;;;;;;5052958;28;20040;-61
2022/07/18 09:45:56;;;;;;;2.92;1.13;;;33.40;60.90;;;;;;5051296;28;20025;-60
2022/07/18 09:48:26;;;;;;;4.55;1.42;;;34.00;59.90;;;;;;5051693;28;20075;-60
2022/07/18 09:50:54;;;;;;;1.67;1.23;;;34.60;59.60;;;;;;5051680;28;20397;-61
2022/07/18 09:53:26;;;;;;;3.10;1.30;;;33.90;58.30;;;;;;5053047;28;20052;-60
2022/07/18 09:55:53;;;;;;;3.05;1.50;;;34.20;57.20;;;;;;5053315;28;20032;-61
2022/07/18 09:58:21;;;;;;;2.28;1.40;;;34.00;57.90;;;;;;5053020;28;20021;-60
2022/07/18 10:00:48;;;;;;;2.63;1.35;;;34.30;57.50;;;;;;5052861;28;20037;-60
2022/07/18 10:03:14;;;;;;;4.65;1.20;;;33.80;57.80;;;;;;5052662;28;20144;-60
2022/07/18 10:05:41;;;;;;;4.85;1.70;;;33.70;58.80;;;;;;5052532;28;20021;-60
2022/07/18 10:08:11;;;;;;;2.65;1.60;;;34.10;57.60;;;;;;5052938;28;20029;-60
2022/07/18 10:10:38;;;;;;;2.60;1.10;;;33.90;58.20;;;;;;5051391;28;20089;-60
2022/07/18 10:13:06;;;;;;;2.50;1.20;;;33.40;56.50;;;;;;5052541;28;20029;-60
2022/07/18 10:15:34;;;;;;;2.25;1.10;;;33.80;57.60;;;;;;5052656;28;20515;-60
2022/07/18 10:18:02;;;;;;;2.15;1.20;;;34.40;56.60;;;;;;5052812;28;20385;-61
2022/07/18 10:20:35;;;;;;;2.40;1.27;;;34.80;55.40;;;;;;5052385;28;20083;-60
2022/07/18 10:23:24;;;;;;;2.17;1.38;;;34.60;55.50;;;;;;5052382;28;20393;-61
2022/07/18 10:26:19;;;;;;;3.85;1.30;;;35.20;54.60;;;;;;5052309;28;20503;-61
2022/07/18 10:28:56;;;;;;;3.15;1.30;;;35.70;55.70;;;;;;5052508;28;20032;-61
2022/07/18 10:31:25;;;;;;;3.70;1.10;;;35.90;54.10;;;;;;5051857;28;20029;-60
2022/07/18 10:33:51;;;;;;;2.70;1.17;;;36.00;54.70;;;;;;5052140;28;20210;-60
2022/07/18 10:36:23;;;;;;;6.22;1.45;;;35.80;53.60;;;;;;5051970;28;20079;-61
2022/07/18 10:39:08;;;;;;;2.13;0.95;;;35.80;53.80;;;;;;5052746;28;20387;-62
2022/07/18 10:41:54;;;;;;;2.10;1.30;;;36.80;52.20;;;;;;5052237;28;20064;-61
2022/07/18 10:44:29;;;;;;;1.58;1.10;;;36.90;52.90;;;;;;5050536;28;20047;-62
2022/07/18 10:47:13;;;;;;;3.72;1.17;;;36.90;51.50;;;;;;5051958;28;20512;-60
2022/07/18 10:49:51;;;;;;;1.17;0.93;;;36.40;51.90;;;;;;5052225;28;20029;-59
2022/07/18 10:52:26;;;;;;;4.13;1.15;;;36.10;51.20;;;;;;5051977;28;20035;-62
2022/07/18 10:55:16;;;;;;;3.65;1.25;;;37.30;50.40;;;;;;5051185;28;20044;-62
2022/07/18 10:57:43;;;;;;;4.45;1.50;;;36.80;49.40;;;;;;5051985;28;20044;-59
2022/07/18 11:00:27;;;;;;;2.85;1.10;;;37.30;48.80;;;;;;5052042;28;20024;-61
2022/07/18 11:03:10;;;;;;;3.08;1.20;;;37.30;48.80;;;;;;5051771;28;20158;-61
2022/07/18 11:05:40;;;;;;;5.18;1.10;;;36.70;49.00;;;;;;5051452;28;20032;-61
2022/07/18 11:08:08;;;;;;;2.87;1.13;;;36.80;48.80;;;;;;5052040;28;20047;-61
2022/07/18 11:10:57;;;;;;;6.45;1.30;;;37.00;48.30;;;;;;5051845;28;20317;-60
2022/07/18 11:13:28;;;;;;;3.13;1.50;;;37.20;49.00;;;;;;5051553;28;20020;-60
2022/07/18 11:15:54;;;;;;;2.65;1.40;;;37.30;49.30;;;;;;5051403;28;20025;-60
2022/07/18 11:18:20;;;;;;;4.82;1.15;;;36.90;49.60;;;;;;5051974;28;20033;-60
2022/07/18 11:20:46;;;;;;;3.50;1.50;;;37.40;49.30;;;;;;5051523;28;20509;-60
2022/07/18 11:23:27;;;;;;;2.75;1.10;;;37.40;47.90;;;;;;5051160;28;20025;-60
2022/07/18 11:25:56;;;;;;;4.22;1.20;;;37.20;48.10;;;;;;5051130;28;20222;-60
2022/07/18 11:28:22;;;;;;;3.85;1.50;;;37.00;49.00;;;;;;5051417;28;20029;-60
2022/07/18 11:31:06;;;;;;;3.20;1.48;;;36.90;48.10;;;;;;5051516;28;20035;-60
2022/07/18 11:33:35;;;;;;;6.40;1.30;;;36.60;48.70;;;;;;5051373;28;20039;-61
2022/07/18 11:36:09;;;;;;;2.45;1.30;;;37.00;49.90;;;;;;5050991;28;20374;-61
2022/07/18 11:38:45;;;;;;;5.55;1.45;;;37.80;47.90;;;;;;5050952;28;20040;-61
2022/07/18 11:41:11;;;;;;;2.85;1.20;;;37.80;46.30;;;;;;5051525;28;20402;-60
2022/07/18 11:43:36;;;;;;;4.07;1.10;;;37.60;45.80;;;;;;5051215;28;20093;-60
2022/07/18 11:46:07;;;;;;;3.22;1.40;;;37.10;46.40;;;;;;5051758;28;20037;-61
2022/07/18 11:48:34;;;;;;;2.63;1.40;;;37.00;47.90;;;;;;5051749;28;20017;-61
2022/07/18 11:51:01;;;;;;;4.78;1.48;;;37.50;46.90;;;;;;5051519;28;20029;-64
2022/07/18 11:53:27;;;;;;;5.43;1.38;;;37.30;47.20;;;;;;5049512;28;20410;-60
2022/07/18 11:55:54;;;;;;;2.28;1.10;;;37.10;45.80;;;;;;5051367;28;20040;-61
2022/07/18 11:58:21;;;;;;;4.32;1.25;;;37.10;45.40;;;;;;5055626;28;20021;-60
2022/07/18 12:00:48;;;;;;;5.65;1.30;;;37.10;45.80;;;;;;5055669;28;20107;-61
2022/07/18 12:03:15;;;;;;;1.55;1.10;;;37.00;46.00;;;;;;5055596;28;20389;-61
2022/07/18 12:05:44;;;;;;;3.20;1.33;;;36.60;45.60;;;;;;5055262;28;20051;-60
2022/07/18 12:08:28;;;;;;;2.92;1.00;;;36.70;45.70;;;;;;5055140;28;20043;-60
2022/07/18 12:11:05;;;;;;;4.25;1.08;;;36.20;46.30;;;;;;5055206;28;20100;-60
2022/07/18 12:13:40;;;;;;;4.80;1.38;;;36.80;45.10;;;;;;5054953;28;20102;-60
2022/07/18 12:16:06;;;;;;;2.55;1.35;;;36.60;44.50;;;;;;5053458;28;20041;-61
2022/07/18 12:18:32;;;;;;;4.60;1.50;;;38.30;44.00;;;;;;5055319;28;20036;-61
2022/07/18 12:21:09;;;;;;;1.45;1.05;;;39.20;43.80;;;;;;5054864;28;20033;-61
2022/07/18 12:23:35;;;;;;;1.90;1.30;;;39.30;44.50;;;;;;5054989;28;20562;-61
2022/07/18 12:26:03;;;;;;;3.95;1.20;;;38.90;43.40;;;;;;5053705;28;20120;-61
2022/07/18 12:28:29;;;;;;;3.70;1.20;;;38.40;43.20;;;;;;5055383;28;20501;-62
2022/07/18 12:30:54;;;;;;;5.18;1.23;;;39.20;42.50;;;;;;5054963;28;20087;-61
2022/07/18 12:33:20;;;;;;;2.42;1.25;;;39.50;42.30;;;;;;5055033;28;20557;-61
2022/07/18 12:35:55;;;;;;;2.35;1.33;;;39.70;42.20;;;;;;5053318;28;20513;-60
2022/07/18 12:38:21;;;;;;;2.05;1.17;;;38.50;41.20;;;;;;5054791;28;20021;-60
2022/07/18 12:40:58;;;;;;;5.32;1.30;;;38.00;42.40;;;;;;5054495;28;20036;-61
2022/07/18 12:43:31;;;;;;;4.03;1.35;;;37.70;42.60;;;;;;5055171;28;20028;-62
2022/07/18 12:45:58;;;;;;;5.05;1.38;;;38.30;41.80;;;;;;5054308;28;20114;-61
2022/07/18 12:48:27;;;;;;;5.55;1.10;;;38.40;41.60;;;;;;5054540;28;20029;-62
2022/07/18 12:50:58;;;;;;;1.98;1.40;;;38.90;41.90;;;;;;5054479;28;20429;-61